createdAt,value
2023-02-04T00:00:51.608Z,8.50
2023-02-04T00:03:20.596Z,10.18
2023-02-04T00:05:48.474Z,8.38
2023-02-04T00:08:16.304Z,8.77
2023-02-04T00:10:47.239Z,9.02
2023-02-04T00:13:15.250Z,9.00
2023-02-04T00:15:43.060Z,9.10
2023-02-04T00:18:11.336Z,10.77
2023-02-04T00:20:41.815Z,10.03
2023-02-04T00:23:09.604Z,9.77
2023-02-04T00:25:37.453Z,7.28
2023-02-04T00:28:06.539Z,10.70
2023-02-04T00:30:38.587Z,9.05
2023-02-04T00:33:09.725Z,8.10
2023-02-04T00:35:40.185Z,10.10
2023-02-04T00:38:08.022Z,12.00
2023-02-04T00:43:19.240Z,11.13
2023-02-04T00:45:49.395Z,9.60
2023-02-04T00:48:17.046Z,8.65
2023-02-04T00:50:47.599Z,10.93
2023-02-04T00:53:15.431Z,9.60
2023-02-04T00:55:43.218Z,9.70
2023-02-04T00:58:15.728Z,8.90
2023-02-04T01:00:46.039Z,9.43
2023-02-04T01:03:18.737Z,10.30
2023-02-04T01:05:47.918Z,8.52
2023-02-04T01:08:17.939Z,10.02
2023-02-04T01:10:45.642Z,9.30
2023-02-04T01:13:15.952Z,9.27
2023-02-04T01:15:44.838Z,10.10
2023-02-04T01:18:12.883Z,11.07
2023-02-04T01:20:45.258Z,11.95
2023-02-04T01:23:15.878Z,13.50
2023-02-04T01:25:43.753Z,9.85
2023-02-04T01:28:14.192Z,10.93
2023-02-04T01:30:44.261Z,10.70
2023-02-04T01:33:17.742Z,9.57
2023-02-04T01:35:45.698Z,7.27
2023-02-04T01:38:15.084Z,11.23
2023-02-04T01:40:48.443Z,9.13
2023-02-04T01:43:18.811Z,9.90
2023-02-04T01:45:46.999Z,9.93
2023-02-04T01:48:20.582Z,11.77
2023-02-04T01:51:02.993Z,10.95
2023-02-04T01:53:32.415Z,10.77
2023-02-04T01:56:13.888Z,9.73
2023-02-04T01:58:41.767Z,9.05
2023-02-04T02:01:33.865Z,7.97
2023-02-04T02:04:05.898Z,11.32
2023-02-04T02:06:35.557Z,9.02
2023-02-04T02:09:05.858Z,8.25
2023-02-04T02:11:37.830Z,10.95
2023-02-04T02:14:07.651Z,9.70
2023-02-04T02:16:35.577Z,10.10
2023-02-04T02:19:05.063Z,10.48
2023-02-04T02:21:40.049Z,7.78
2023-02-04T02:24:31.226Z,11.55
2023-02-04T02:27:05.113Z,10.10
2023-02-04T02:29:33.031Z,11.77
2023-02-04T02:32:01.309Z,9.32
2023-02-04T02:34:34.074Z,9.50
2023-02-04T02:37:10.418Z,10.25
2023-02-04T02:39:41.162Z,9.37
2023-02-04T02:42:23.272Z,9.55
2023-02-04T02:44:51.813Z,10.15
2023-02-04T02:47:24.977Z,13.60
2023-02-04T02:49:57.141Z,10.30
2023-02-04T02:52:25.055Z,11.00
2023-02-04T02:54:54.047Z,10.65
2023-02-04T02:57:25.741Z,10.32
2023-02-04T02:59:55.760Z,10.45
2023-02-04T03:02:24.807Z,11.00
2023-02-04T03:05:00.830Z,10.90
2023-02-04T03:07:38.749Z,10.68
2023-02-04T03:10:09.152Z,11.73
2023-02-04T03:12:39.652Z,14.32
2023-02-04T03:15:13.579Z,14.05
2023-02-04T03:17:47.993Z,10.27
2023-02-04T03:20:17.464Z,12.05
2023-02-04T03:22:47.774Z,11.10
2023-02-04T03:25:19.073Z,12.27
2023-02-04T03:27:47.659Z,12.15
2023-02-04T03:30:17.872Z,12.73
2023-02-04T03:32:49.568Z,9.95
2023-02-04T03:35:21.065Z,9.95
2023-02-04T03:37:51.036Z,12.07
2023-02-04T03:40:19.066Z,11.15
2023-02-04T03:42:46.786Z,10.63
2023-02-04T03:45:14.628Z,12.18
2023-02-04T03:47:44.840Z,12.75
2023-02-04T03:50:14.172Z,8.25
2023-02-04T03:52:50.338Z,11.25
2023-02-04T03:55:25.763Z,17.63
2023-02-04T03:57:54.543Z,11.65
2023-02-04T04:00:25.576Z,11.20
2023-02-04T04:02:57.033Z,11.43
2023-02-04T04:05:29.383Z,11.95
2023-02-04T04:07:59.636Z,13.50
2023-02-04T04:10:32.183Z,11.75
2023-02-04T04:13:00.172Z,14.43
2023-02-04T04:15:27.900Z,15.43
2023-02-04T04:17:55.648Z,13.65
2023-02-04T04:20:28.734Z,13.10
2023-02-04T04:22:59.850Z,11.55
2023-02-04T04:25:30.594Z,13.05
2023-02-04T04:28:01.572Z,12.35
2023-02-04T04:30:32.708Z,12.25
2023-02-04T04:33:10.845Z,10.57
2023-02-04T04:35:41.645Z,11.57
2023-02-04T04:38:11.977Z,12.55
2023-02-04T04:40:41.970Z,13.00
2023-02-04T04:43:12.001Z,12.48
2023-02-04T04:45:42.950Z,12.37
2023-02-04T04:48:15.094Z,11.02
2023-02-04T04:50:43.011Z,13.45
2023-02-04T04:53:11.548Z,12.05
2023-02-04T04:55:39.746Z,11.88
2023-02-04T04:58:09.396Z,12.43
2023-02-04T05:00:37.434Z,16.10
2023-02-04T05:03:05.202Z,11.65
2023-02-04T05:05:41.129Z,12.70
2023-02-04T05:08:19.684Z,11.45
2023-02-04T05:10:49.451Z,11.43
2023-02-04T05:13:29.964Z,11.20
2023-02-04T05:15:58.957Z,12.38
2023-02-04T05:18:27.489Z,11.38
2023-02-04T05:20:55.459Z,12.52
2023-02-04T05:23:23.214Z,12.80
2023-02-04T05:25:50.931Z,13.95
2023-02-04T05:28:21.020Z,10.18
2023-02-04T05:30:51.667Z,13.35
2023-02-04T05:36:41.401Z,15.53
2023-02-04T05:39:09.454Z,13.20
2023-02-04T05:41:43.517Z,11.75
2023-02-04T05:44:11.334Z,16.40
2023-02-04T05:46:42.105Z,12.77
2023-02-04T05:49:12.344Z,12.37
2023-02-04T05:51:42.673Z,14.05
2023-02-04T05:54:19.695Z,13.23
2023-02-04T05:57:06.933Z,12.27
2023-02-04T05:59:44.344Z,13.13
2023-02-04T06:02:14.575Z,11.67
2023-02-04T06:04:44.995Z,10.90
2023-02-04T06:07:22.583Z,14.25
2023-02-04T06:09:50.476Z,13.02
2023-02-04T06:12:20.983Z,13.75
2023-02-04T06:14:51.744Z,12.63
2023-02-04T06:17:19.540Z,13.80
2023-02-04T06:19:47.199Z,15.43
2023-02-04T06:22:26.265Z,11.25
2023-02-04T06:24:53.957Z,10.95
2023-02-04T06:27:24.170Z,16.47
2023-02-04T06:29:54.715Z,14.00
2023-02-04T06:32:32.202Z,17.65
2023-02-04T06:35:02.619Z,15.88
2023-02-04T06:37:32.860Z,13.45
2023-02-04T06:40:00.602Z,22.27
2023-02-04T06:42:28.451Z,25.10
2023-02-04T06:44:56.176Z,25.58
2023-02-04T06:47:30.956Z,26.50
2023-02-04T06:50:00.457Z,18.95
2023-02-04T06:52:33.334Z,17.30
2023-02-04T06:55:03.549Z,17.40
2023-02-04T06:57:31.270Z,13.10
2023-02-04T06:59:59.180Z,16.10
2023-02-04T07:02:29.381Z,14.90
2023-02-04T07:04:57.169Z,15.00
2023-02-04T07:07:27.775Z,17.88
2023-02-04T07:09:55.544Z,14.15
2023-02-04T07:12:35.411Z,15.05
2023-02-04T07:15:18.581Z,19.70
2023-02-04T07:18:08.815Z,16.20
2023-02-04T07:20:48.748Z,18.50
2023-02-04T07:23:37.944Z,20.65
2023-02-04T07:26:16.154Z,15.10
2023-02-04T07:28:51.412Z,16.92
2023-02-04T07:31:31.482Z,20.43
2023-02-04T07:34:02.052Z,15.70
2023-02-04T07:36:33.494Z,16.10
2023-02-04T07:39:05.495Z,16.83
2023-02-04T07:42:24.022Z,15.05
2023-02-04T07:44:56.744Z,18.63
2023-02-04T07:47:24.831Z,15.88
2023-02-04T07:49:54.906Z,19.65
2023-02-04T07:52:25.691Z,19.52
2023-02-04T07:54:56.515Z,17.17
2023-02-04T07:57:24.392Z,16.13
2023-02-04T07:59:53.282Z,16.77
2023-02-04T08:02:20.946Z,11.60
2023-02-04T08:04:48.807Z,12.15
2023-02-04T08:07:16.524Z,12.80
2023-02-04T08:09:44.299Z,16.37
2023-02-04T08:12:17.594Z,13.55
2023-02-04T08:14:46.455Z,12.68
2023-02-04T08:17:14.077Z,13.98
2023-02-04T08:19:41.768Z,17.55
2023-02-04T08:22:11.806Z,16.53
2023-02-04T08:24:39.614Z,12.93
2023-02-04T08:27:09.142Z,14.20
2023-02-04T08:29:40.262Z,9.27
2023-02-04T08:32:10.400Z,9.43
2023-02-04T08:34:38.056Z,13.33
2023-02-04T08:37:09.181Z,12.95
2023-02-04T09:36:33.921Z,14.33
2023-02-04T09:39:20.911Z,11.23
2023-02-04T09:41:56.481Z,9.43
2023-02-04T09:45:31.858Z,10.43
2023-02-04T09:49:19.332Z,10.73
2023-02-04T09:56:23.465Z,12.27
2023-02-04T10:44:48.546Z,8.37
2023-02-04T11:45:50.838Z,6.65
2023-02-04T11:48:21.120Z,7.70
2023-02-04T11:51:00.664Z,5.80
2023-02-04T11:53:32.890Z,7.18
2023-02-04T11:56:02.258Z,8.05
2023-02-04T11:58:31.311Z,7.32
2023-02-04T12:00:59.637Z,6.00
2023-02-04T12:03:36.362Z,7.28
2023-02-04T12:06:04.301Z,6.65
2023-02-04T12:08:39.683Z,5.63
2023-02-04T12:11:11.507Z,6.03
2023-02-04T12:13:50.547Z,11.80
2023-02-04T12:16:23.512Z,9.70
2023-02-04T12:18:51.634Z,6.57
2023-02-04T12:21:19.625Z,8.80
2023-02-04T12:23:53.516Z,6.30
2023-02-04T12:26:21.430Z,10.43
2023-02-04T12:28:49.078Z,8.82
2023-02-04T12:31:16.947Z,8.45
2023-02-04T12:33:44.833Z,8.20
2023-02-04T12:36:12.578Z,6.00
2023-02-04T12:38:40.914Z,6.33
2023-02-04T12:41:08.785Z,10.67
2023-02-04T12:43:38.852Z,9.60
2023-02-04T12:46:10.501Z,6.57
2023-02-04T12:48:43.216Z,7.65
2023-02-04T12:51:14.180Z,7.22
2023-02-04T12:53:41.959Z,7.60
2023-02-04T12:56:11.902Z,7.85
2023-02-04T12:58:42.582Z,5.07
2023-02-04T13:01:14.187Z,6.75
2023-02-04T13:03:45.111Z,8.90
2023-02-04T13:06:16.166Z,9.17
2023-02-04T13:08:43.988Z,7.03
2023-02-04T13:11:11.786Z,5.60
2023-02-04T13:13:39.495Z,7.10
2023-02-04T13:16:07.596Z,9.38
2023-02-04T13:18:35.308Z,9.68
2023-02-04T13:24:24.774Z,6.90
2023-02-04T13:27:04.146Z,9.55
2023-02-04T13:29:32.276Z,6.10
2023-02-04T13:32:08.811Z,7.57
2023-02-04T13:34:36.672Z,5.85
2023-02-04T13:37:04.519Z,7.80
2023-02-04T13:39:32.270Z,11.37
2023-02-04T13:41:59.976Z,8.77
2023-02-04T13:44:27.896Z,6.53
2023-02-04T13:46:55.767Z,7.53
2023-02-04T13:49:31.234Z,5.75
2023-02-04T13:52:03.712Z,7.37
2023-02-04T13:54:35.879Z,8.85
2023-02-04T13:57:16.208Z,7.82
2023-02-04T14:00:21.552Z,5.88
2023-02-04T14:03:00.806Z,7.32
2023-02-04T14:05:41.558Z,9.07
2023-02-04T14:08:14.853Z,9.00
2023-02-04T14:10:48.266Z,6.82
2023-02-04T14:13:30.627Z,5.70
2023-02-04T14:16:05.339Z,6.05
2023-02-04T14:18:33.373Z,8.30
2023-02-04T14:21:04.618Z,7.47
2023-02-04T14:23:38.454Z,7.13
2023-02-04T14:26:12.313Z,7.78
2023-02-04T14:28:44.991Z,6.80
2023-02-04T14:31:42.319Z,7.70
2023-02-04T14:34:16.898Z,8.70
2023-02-04T14:36:47.523Z,5.43
2023-02-04T14:39:21.855Z,9.37
2023-02-04T14:41:59.170Z,6.78
2023-02-04T14:44:29.284Z,9.25
2023-02-04T14:46:57.039Z,9.10
2023-02-04T14:49:27.255Z,6.60
2023-02-04T14:51:57.643Z,6.37
2023-02-04T14:54:28.977Z,8.35
2023-02-04T14:57:01.908Z,7.25
2023-02-04T14:59:33.743Z,7.90
2023-02-04T15:02:04.890Z,6.38
2023-02-04T15:04:40.282Z,9.43
2023-02-04T15:07:11.946Z,7.17
2023-02-04T15:09:44.925Z,7.40
2023-02-04T15:12:19.549Z,8.50
2023-02-04T15:18:04.556Z,9.93
2023-02-04T15:22:07.749Z,6.23
2023-02-04T16:28:18.437Z,10.10
2023-02-04T16:31:30.133Z,7.00
2023-02-04T16:34:52.798Z,7.32
2023-02-04T16:44:52.643Z,9.70
2023-02-04T16:52:23.633Z,7.93
2023-02-04T16:58:43.796Z,6.53
2023-02-04T18:34:35.618Z,11.83
2023-02-04T18:37:58.856Z,9.40
2023-02-04T19:00:00.023Z,12.80
2023-02-04T19:02:30.365Z,13.18
2023-02-04T19:05:12.841Z,11.55
2023-02-04T19:07:49.100Z,13.27
2023-02-04T19:10:53.872Z,14.65
2023-02-04T19:13:39.703Z,12.75
2023-02-04T19:16:10.732Z,12.43
2023-02-04T19:18:51.425Z,20.75
2023-02-04T19:21:34.431Z,14.83
2023-02-04T19:24:21.290Z,13.57
2023-02-04T19:26:56.208Z,14.82
2023-02-04T19:29:29.898Z,16.20
2023-02-04T19:32:19.348Z,17.85
2023-02-04T19:34:47.272Z,17.23
2023-02-04T19:37:23.524Z,15.63
2023-02-04T19:39:54.374Z,15.32
2023-02-04T19:42:32.697Z,14.88
2023-02-04T19:45:23.640Z,14.73
2023-02-04T19:47:58.833Z,17.53
2023-02-04T19:50:43.021Z,14.63
2023-02-04T19:53:23.531Z,14.32
2023-02-04T19:55:55.791Z,15.45
2023-02-04T19:58:29.086Z,14.40
2023-02-04T20:01:09.618Z,15.17
2023-02-04T20:03:48.231Z,16.52
2023-02-04T20:06:30.258Z,19.63
2023-02-04T20:09:18.567Z,19.60
2023-02-04T20:11:59.775Z,17.92
2023-02-04T20:14:56.408Z,15.13
2023-02-04T20:17:39.772Z,16.65
2023-02-04T20:20:30.756Z,19.13
2023-02-04T20:23:02.857Z,17.35
2023-02-04T20:25:36.421Z,17.08
2023-02-04T20:28:37.009Z,16.17
2023-02-04T20:31:31.904Z,14.05
2023-02-04T20:34:02.953Z,20.40
2023-02-04T20:36:36.499Z,15.85
2023-02-04T20:39:17.619Z,15.45
2023-02-04T20:41:48.049Z,16.87
2023-02-04T20:44:22.885Z,15.90
2023-02-04T20:46:54.687Z,17.33
2023-02-04T20:49:42.726Z,18.42
2023-02-04T20:52:46.350Z,19.17
2023-02-04T20:55:25.292Z,19.50
2023-02-04T20:58:25.910Z,17.42
2023-02-04T21:00:56.121Z,18.95
2023-02-04T21:03:38.055Z,18.70
2023-02-04T21:06:30.972Z,19.45
2023-02-04T21:09:12.310Z,17.57
2023-02-04T21:11:45.084Z,18.48
2023-02-04T21:14:15.818Z,17.15
2023-02-04T21:16:55.859Z,16.10
2023-02-04T21:19:28.153Z,15.55
2023-02-04T21:22:08.350Z,14.67
2023-02-04T21:24:48.355Z,13.10
2023-02-04T21:27:27.923Z,17.30
2023-02-04T21:30:03.792Z,15.88
2023-02-04T21:32:34.616Z,13.80
2023-02-04T21:35:02.501Z,16.60
2023-02-04T21:37:32.701Z,18.73
2023-02-04T21:40:09.976Z,18.92
2023-02-04T21:42:40.095Z,13.27
2023-02-04T21:45:09.868Z,14.13
2023-02-04T21:47:38.826Z,13.60
2023-02-04T21:50:08.630Z,17.20
2023-02-04T21:52:45.893Z,15.35
2023-02-04T21:55:23.454Z,14.45
2023-02-04T21:58:06.736Z,14.90
2023-02-04T22:00:34.680Z,13.40
2023-02-04T22:03:02.762Z,14.25
2023-02-04T22:05:30.632Z,14.90
2023-02-04T22:07:59.800Z,11.95
2023-02-04T22:10:30.355Z,13.98
2023-02-04T22:12:58.224Z,11.40
2023-02-04T22:15:25.922Z,13.05
2023-02-04T22:17:54.146Z,12.85
2023-02-04T22:20:26.111Z,13.20
2023-02-04T22:22:54.424Z,13.82
2023-02-04T22:25:23.694Z,11.07
2023-02-04T22:27:51.483Z,14.23
2023-02-04T22:30:39.799Z,12.80
2023-02-04T22:33:11.613Z,10.13
2023-02-04T22:35:39.428Z,10.18
2023-02-04T22:38:07.296Z,11.57
2023-02-04T22:40:38.031Z,16.20
2023-02-04T22:43:06.176Z,13.05
2023-02-04T22:45:34.113Z,17.02
2023-02-04T22:48:02.112Z,11.63
2023-02-04T22:50:30.531Z,10.70
2023-02-04T22:52:58.338Z,10.30
2023-02-04T22:55:26.175Z,17.80
2023-02-04T22:57:54.428Z,10.52
2023-02-04T23:00:21.999Z,12.88
2023-02-04T23:02:50.008Z,14.57
2023-02-04T23:05:17.634Z,10.43
2023-02-04T23:07:45.333Z,10.23
2023-02-04T23:10:15.636Z,12.18
2023-02-04T23:12:43.376Z,16.90
2023-02-04T23:15:15.761Z,14.27
2023-02-04T23:17:43.625Z,13.73
2023-02-04T23:20:11.692Z,11.90
2023-02-04T23:22:39.983Z,11.45
2023-02-04T23:25:08.139Z,12.82
2023-02-04T23:27:35.980Z,12.53
2023-02-04T23:30:07.486Z,14.88
2023-02-04T23:32:36.245Z,13.88
2023-02-04T23:35:03.906Z,13.88
2023-02-04T23:37:35.042Z,14.18
2023-02-04T23:40:03.753Z,14.50
2023-02-04T23:42:36.949Z,13.80
2023-02-04T23:45:06.018Z,14.60
2023-02-04T23:47:33.785Z,16.42
2023-02-04T23:53:04.282Z,11.00
2023-02-04T23:55:32.727Z,12.65
2023-02-04T23:58:09.878Z,12.93
